Time;durP1;ratioP1;P1;durP2;ratioP2;P2;SDS_P1;SDS_P2;PMS_P1;PMS_P2;Temp;Humidity;BMP_temperature;BMP_pressure;BME280_temperature;BME280_humidity;BME280_pressure;Samples;Min_cycle;Max_cycle;Signal;HPM_P1;HPM_P2
2024/04/03 00:02:12;;;;;;;19.20;4.90;;;;;;;12.49;73.05;98092.73;79550;1293;3013305;-61
2024/04/03 00:04:39;;;;;;;23.60;4.30;;;;;;;12.48;72.91;98082.77;79610;1295;3011512;-61
2024/04/03 00:07:07;;;;;;;30.90;4.90;;;;;;;12.55;72.61;98065.60;78555;1295;3026012;-60
2024/04/03 00:09:33;;;;;;;38.70;5.70;;;;;;;12.57;72.49;98056.31;79778;1295;3012872;-60
2024/04/03 00:12:00;;;;;;;26.90;5.60;;;;;;;12.54;72.52;98049.71;79616;1295;3011841;-60
2024/04/03 00:14:28;;;;;;;23.30;5.10;;;;;;;12.54;72.60;98065.54;78509;1295;3027294;-60
2024/04/03 00:16:55;;;;;;;27.80;5.80;;;;;;;12.53;72.55;98081.21;79860;1295;3013355;-60
2024/04/03 00:19:21;;;;;;;47.40;6.10;;;;;;;12.48;72.97;98082.41;79568;1295;3013195;-60
2024/04/03 00:21:52;;;;;;;21.00;4.20;;;;;;;12.45;73.06;98078.34;78507;1296;3026543;-59
2024/04/03 00:24:19;;;;;;;34.00;5.80;;;;;;;12.48;72.52;98082.75;79669;1294;3011991;-58
2024/04/03 00:26:48;;;;;;;27.70;4.40;;;;;;;12.42;72.80;98080.70;79336;1292;3011603;-60
2024/04/03 00:29:15;;;;;;;32.00;4.90;;;;;;;12.46;72.50;98084.66;79554;1293;3013137;-60
2024/04/03 00:31:41;;;;;;;24.60;4.90;;;;;;;12.39;73.23;98080.98;79653;1295;3013860;-59
2024/04/03 00:34:09;;;;;;;26.60;4.70;;;;;;;12.45;72.41;98088.02;78361;1295;3026287;-61
2024/04/03 00:36:35;;;;;;;20.40;4.60;;;;;;;12.43;72.36;98084.94;79558;1295;3018481;-60
2024/04/03 00:39:02;;;;;;;34.60;5.30;;;;;;;12.45;72.03;98085.48;79808;1291;3011598;-61
2024/04/03 00:41:30;;;;;;;25.10;4.70;;;;;;;12.29;73.07;98099.05;78756;1295;3028698;-60
2024/04/03 00:43:57;;;;;;;33.10;4.80;;;;;;;12.33;72.75;98089.52;79794;1298;3012824;-59
2024/04/03 00:46:24;;;;;;;34.00;5.00;;;;;;;12.29;73.29;98089.63;79727;1297;3012985;-61
2024/04/03 00:48:52;;;;;;;31.70;6.60;;;;;;;12.28;73.12;98090.34;78217;1298;3027747;-60
2024/04/03 00:51:18;;;;;;;30.00;5.60;;;;;;;12.24;73.50;98076.95;79473;1295;3013566;-60
2024/04/03 00:53:45;;;;;;;26.20;4.50;;;;;;;12.21;73.88;98081.65;79624;1297;3012095;-59
2024/04/03 00:56:13;;;;;;;18.40;4.20;;;;;;;12.33;73.32;98092.59;78411;1297;3028123;-61
2024/04/03 00:58:39;;;;;;;22.20;3.90;;;;;;;12.93;71.66;98093.45;79695;1298;3013061;-62
2024/04/03 01:01:06;;;;;;;37.70;5.90;;;;;;;13.26;69.93;98087.27;79965;1296;3011914;-60
2024/04/03 01:03:34;;;;;;;28.60;5.10;;;;;;;13.30;69.41;98089.33;78452;1305;3026183;-63
2024/04/03 01:06:01;;;;;;;29.50;5.00;;;;;;;13.11;69.45;98090.17;79885;1291;3019850;-60
2024/04/03 01:08:28;;;;;;;30.40;5.20;;;;;;;13.08;69.51;98079.91;79677;1295;3011576;-58
2024/04/03 01:11:00;;;;;;;24.60;5.40;;;;;;;13.08;69.27;98094.84;78472;1292;3052974;-61
2024/04/03 01:13:27;;;;;;;31.20;4.70;;;;;;;12.81;69.90;98107.16;80036;1292;3013805;-59
2024/04/03 01:16:04;;;;;;;23.80;4.80;;;;;;;12.48;71.07;98114.88;79223;1293;3013750;-62
2024/04/03 01:18:32;;;;;;;20.30;4.10;;;;;;;12.47;70.70;98113.46;78354;1292;3057081;-61
2024/04/03 01:20:59;;;;;;;30.30;4.90;;;;;;;12.52;69.78;98105.77;79761;1292;3018835;-60
2024/04/03 01:23:26;;;;;;;26.70;4.80;;;;;;;12.52;69.47;98106.80;79641;1292;3011492;-63
2024/04/03 01:25:54;;;;;;;29.50;5.00;;;;;;;12.44;69.47;98101.20;78469;1295;3028950;-62
2024/04/03 01:28:22;;;;;;;24.10;4.70;;;;;;;12.40;69.27;98101.73;79747;1293;3013166;-62
2024/04/03 01:30:51;;;;;;;23.60;4.50;;;;;;;12.34;69.60;98106.84;80014;1292;3011767;-61
2024/04/03 01:33:19;;;;;;;26.90;4.30;;;;;;;12.36;69.17;98104.56;78415;1296;3058208;-60
2024/04/03 01:35:46;;;;;;;21.70;4.00;;;;;;;12.36;68.60;98090.11;79695;1292;3020805;-61
2024/04/03 01:38:12;;;;;;;27.00;4.30;;;;;;;12.35;68.64;98092.92;79633;1298;3011575;-62
2024/04/03 01:40:40;;;;;;;30.00;4.10;;;;;;;12.33;68.47;98103.59;78620;1298;3026723;-61
2024/04/03 01:43:07;;;;;;;19.20;4.30;;;;;;;12.32;68.30;98111.91;79672;1295;3018406;-60
2024/04/03 01:45:33;;;;;;;26.40;4.40;;;;;;;12.35;68.31;98118.84;79686;1298;3013208;-60
2024/04/03 01:48:01;;;;;;;24.10;4.30;;;;;;;12.36;67.67;98116.98;78469;1296;3026760;-60
2024/04/03 01:50:38;;;;;;;29.60;4.80;;;;;;;12.29;67.88;98124.50;79610;1292;3013584;-60
2024/04/03 01:53:06;;;;;;;22.10;5.00;;;;;;;12.21;68.14;98138.05;78442;1292;3049906;-60
2024/04/03 01:55:33;;;;;;;28.10;4.60;;;;;;;12.29;67.63;98139.78;79674;1292;3012673;-59
2024/04/03 01:57:59;;;;;;;26.00;4.30;;;;;;;12.28;67.13;98140.27;79616;1296;3013298;-60
2024/04/03 02:00:27;;;;;;;22.00;4.10;;;;;;;12.25;67.13;98135.02;78340;1298;3026423;-61
2024/04/03 02:02:54;;;;;;;20.60;3.60;;;;;;;12.15;67.26;98129.59;79713;1296;3013376;-59
2024/04/03 02:05:20;;;;;;;17.10;3.50;;;;;;;12.09;67.27;98133.96;79732;1292;3011846;-61
2024/04/03 02:07:49;;;;;;;18.60;3.10;;;;;;;12.14;66.73;98141.23;78461;1296;3025844;-61
2024/04/03 02:10:16;;;;;;;18.40;3.80;;;;;;;12.12;66.57;98146.36;79780;1298;3012806;-61
2024/04/03 02:12:42;;;;;;;20.60;2.70;;;;;;;12.07;66.19;98151.00;79719;1291;3013276;-63
2024/04/03 02:15:10;;;;;;;11.50;2.60;;;;;;;12.01;65.52;98152.77;78422;1295;3051914;-61
2024/04/03 02:17:37;;;;;;;18.20;3.30;;;;;;;11.97;65.73;98151.88;79823;1293;3019141;-60
2024/04/03 02:20:04;;;;;;;12.60;2.90;;;;;;;11.97;65.14;98150.63;79831;1295;3011983;-60
2024/04/03 02:22:33;;;;;;;12.40;3.40;;;;;;;11.93;65.09;98156.07;78508;1294;3049543;-61
2024/04/03 02:24:59;;;;;;;9.80;2.60;;;;;;;11.94;64.90;98164.61;79599;1292;3018533;-61
2024/04/03 02:27:26;;;;;;;13.90;2.90;;;;;;;11.87;64.59;98175.48;79700;1292;3013275;-60
2024/04/03 02:29:54;;;;;;;14.80;2.90;;;;;;;11.87;64.21;98178.87;78393;1292;3028699;-61
2024/04/03 02:32:20;;;;;;;13.50;2.00;;;;;;;11.82;63.93;98178.40;79779;1293;3013343;-60
2024/04/03 02:34:47;;;;;;;11.70;2.20;;;;;;;11.83;63.43;98181.47;79650;1293;3012944;-61
2024/04/03 02:37:15;;;;;;;12.40;2.40;;;;;;;11.80;63.09;98177.20;78469;1299;3025920;-60
2024/04/03 02:39:42;;;;;;;9.80;2.20;;;;;;;11.71;62.56;98176.17;79704;1295;3013230;-61
2024/04/03 02:42:08;;;;;;;13.80;2.50;;;;;;;11.74;62.40;98181.67;79613;1292;3012979;-60
2024/04/03 02:44:36;;;;;;;16.50;3.20;;;;;;;11.74;62.02;98192.42;78484;1292;3028058;-61
2024/04/03 02:47:03;;;;;;;13.10;2.10;;;;;;;11.67;61.65;98211.23;79542;1292;3013230;-59
2024/04/03 02:49:30;;;;;;;9.50;1.90;;;;;;;11.64;62.13;98220.13;79662;1294;3011600;-58
2024/04/03 02:51:58;;;;;;;11.10;2.20;;;;;;;11.58;61.75;98232.71;78679;1292;3027667;-61
2024/04/03 02:54:24;;;;;;;8.40;1.80;;;;;;;11.53;61.37;98224.36;79625;1294;3013575;-60
2024/04/03 02:56:52;;;;;;;9.40;2.40;;;;;;;11.40;61.06;98215.81;79639;1292;3011710;-60
2024/04/03 02:59:19;;;;;;;11.80;2.40;;;;;;;11.33;61.20;98211.63;78609;1295;3026758;-62
2024/04/03 03:01:46;;;;;;;9.80;1.40;;;;;;;11.42;60.87;98211.80;79686;1292;3013214;-60
2024/04/03 03:04:13;;;;;;;7.60;1.40;;;;;;;11.36;60.54;98204.00;79668;1297;3011500;-58
2024/04/03 03:06:40;;;;;;;8.30;1.40;;;;;;;11.27;60.41;98214.27;78584;1298;3025842;-60
2024/04/03 03:09:07;;;;;;;5.60;1.50;;;;;;;11.18;60.36;98226.58;79685;1296;3018391;-59
2024/04/03 03:11:34;;;;;;;4.70;1.70;;;;;;;11.21;59.92;98228.92;79630;1297;3011913;-59
2024/04/03 03:14:04;;;;;;;3.90;2.00;;;;;;;11.03;60.29;98232.30;78582;1293;3026815;-59
2024/04/03 03:16:30;;;;;;;5.50;2.70;;;;;;;10.97;60.33;98249.13;79605;1293;3013073;-60
2024/04/03 03:18:57;;;;;;;9.20;1.80;;;;;;;10.97;60.32;98247.54;79658;1292;3013457;-59
2024/04/03 03:21:25;;;;;;;4.00;1.60;;;;;;;11.03;60.56;98243.88;78392;1295;3049203;-59
2024/04/03 03:23:51;;;;;;;7.20;1.40;;;;;;;11.01;60.33;98250.39;79737;1292;3013270;-62
2024/04/03 03:26:18;;;;;;;7.60;2.00;;;;;;;10.96;60.39;98254.44;79683;1292;3011503;-60
2024/04/03 03:28:46;;;;;;;4.40;2.50;;;;;;;10.86;60.63;98270.35;78411;1295;3027955;-60
2024/04/03 03:31:13;;;;;;;7.70;2.60;;;;;;;10.80;60.53;98265.02;79704;1294;3013303;-60
2024/04/03 03:33:41;;;;;;;5.60;1.80;;;;;;;10.78;60.20;98267.27;79725;1293;3011662;-59
2024/04/03 03:36:09;;;;;;;6.30;1.40;;;;;;;10.81;60.14;98276.53;78527;1295;3049409;-61
2024/04/03 03:38:35;;;;;;;8.80;1.10;;;;;;;10.75;59.98;98279.13;79782;1297;3013069;-60
2024/04/03 03:41:05;;;;;;;4.20;1.00;;;;;;;10.77;60.13;98286.83;79793;1295;3011606;-60
2024/04/03 03:43:33;;;;;;;6.90;0.90;;;;;;;10.75;60.17;98289.59;78397;1295;3052956;-60
2024/04/03 03:46:00;;;;;;;4.30;0.90;;;;;;;10.71;60.21;98294.11;79678;1292;3020803;-61
2024/04/03 03:54:01;;;;;;;11.10;1.90;;;;;;;10.68;60.61;98299.77;78532;1295;3051586;-61
2024/04/03 03:56:28;;;;;;;8.70;1.80;;;;;;;10.58;60.75;98309.52;79863;1295;3011860;-66
2024/04/03 03:58:55;;;;;;;11.80;2.10;;;;;;;10.58;60.78;98311.27;79846;1292;3011686;-62
2024/04/03 04:01:23;;;;;;;15.60;2.30;;;;;;;10.52;61.00;98332.17;78718;1292;3056494;-63
2024/04/03 04:03:49;;;;;;;10.20;1.90;;;;;;;10.58;60.73;98327.75;79786;1293;3019362;-61
2024/04/03 04:06:16;;;;;;;7.50;2.50;;;;;;;10.64;60.64;98329.35;79580;1293;3011802;-62
2024/04/03 04:08:44;;;;;;;11.30;1.30;;;;;;;10.55;61.03;98330.77;78350;1295;3028546;-63
2024/04/03 04:11:10;;;;;;;5.70;1.10;;;;;;;10.54;60.96;98327.30;79696;1295;3013249;-61
2024/04/03 04:13:37;;;;;;;3.30;1.00;;;;;;;10.54;60.82;98333.45;79637;1295;3011498;-60
2024/04/03 04:16:05;;;;;;;2.10;0.80;;;;;;;10.52;61.01;98342.70;78386;1295;3027686;-60
2024/04/03 04:18:32;;;;;;;4.40;0.70;;;;;;;10.51;61.28;98343.34;79647;1293;3012973;-59
2024/04/03 04:21:00;;;;;;;0.90;0.50;;;;;;;10.43;61.25;98349.39;79907;1293;3011629;-61
2024/04/03 04:23:28;;;;;;;2.30;0.70;;;;;;;10.46;61.08;98350.58;78543;1295;3052831;-61
2024/04/03 04:26:06;;;;;;;1.30;0.70;;;;;;;10.41;61.29;98368.44;79758;1295;3011638;-61
2024/04/03 04:28:34;;;;;;;1.90;0.80;;;;;;;10.52;61.34;98355.17;78689;1292;3053185;-58
2024/04/03 04:31:02;;;;;;;4.10;0.60;;;;;;;10.50;61.29;98367.39;79678;1294;3013126;-58
2024/04/03 04:33:30;;;;;;;1.90;0.90;;;;;;;10.54;61.17;98373.73;79886;1291;3011750;-60
2024/04/03 04:35:58;;;;;;;1.70;0.80;;;;;;;10.59;61.06;98376.84;78497;1292;3050727;-61
2024/04/03 04:38:26;;;;;;;4.60;1.00;;;;;;;10.60;60.94;98375.41;79781;1292;3013944;-61
2024/04/03 04:40:53;;;;;;;5.30;1.70;;;;;;;10.50;61.41;98384.39;79884;1292;3012875;-59
2024/04/03 04:43:22;;;;;;;8.60;2.30;;;;;;;10.48;61.44;98384.34;78480;1294;3052425;-60
2024/04/03 04:46:02;;;;;;;4.90;2.20;;;;;;;10.66;61.04;98393.10;79710;1289;3012940;-61
2024/04/03 04:48:31;;;;;;;4.40;1.90;;;;;;;10.68;61.08;98393.34;78819;1293;3053213;-59
2024/04/03 04:50:59;;;;;;;4.30;1.90;;;;;;;10.73;61.02;98399.89;80101;1294;3013947;-61
2024/04/03 04:53:26;;;;;;;2.40;1.70;;;;;;;10.73;60.83;98396.96;79788;1295;3011825;-61
2024/04/03 04:55:55;;;;;;;3.00;1.30;;;;;;;10.78;60.78;98392.52;78447;1295;3068937;-60
2024/04/03 04:58:23;;;;;;;3.60;1.00;;;;;;;10.81;60.91;98396.12;79677;1291;3013288;-61
2024/04/03 05:00:50;;;;;;;8.00;1.80;;;;;;;10.82;61.18;98406.20;79940;1292;3011636;-62
2024/04/03 05:03:18;;;;;;;1.50;0.90;;;;;;;10.84;60.85;98406.56;78832;1292;3053882;-60
2024/04/03 05:05:45;;;;;;;0.40;0.30;;;;;;;10.91;60.79;98409.73;79725;1292;3013362;-60
2024/04/03 05:08:11;;;;;;;0.50;0.40;;;;;;;10.97;60.94;98416.80;79802;1295;3011591;-60
2024/04/03 05:10:39;;;;;;;1.40;0.40;;;;;;;11.00;60.70;98410.58;78574;1295;3026679;-62
2024/04/03 05:13:06;;;;;;;4.10;0.80;;;;;;;10.96;60.76;98405.36;79907;1292;3018500;-63
2024/04/03 05:15:32;;;;;;;3.00;1.00;;;;;;;10.97;60.77;98411.52;79755;1293;3011920;-61
2024/04/03 05:18:00;;;;;;;4.50;1.20;;;;;;;10.95;60.49;98406.44;78570;1292;3025860;-61
2024/04/03 05:20:27;;;;;;;1.40;0.60;;;;;;;11.05;60.60;98412.79;79804;1295;3013387;-61
2024/04/03 05:22:53;;;;;;;4.70;1.20;;;;;;;11.18;60.11;98418.66;79987;1294;3011897;-61
2024/04/03 05:25:21;;;;;;;3.70;0.80;;;;;;;11.23;59.87;98416.83;78624;1295;3025600;-62
2024/04/03 05:27:48;;;;;;;3.50;0.90;;;;;;;11.36;59.83;98420.21;79809;1292;3013455;-63
2024/04/03 05:30:15;;;;;;;1.00;0.70;;;;;;;11.44;59.80;98421.48;79946;1292;3012777;-60
2024/04/03 05:32:43;;;;;;;1.60;1.00;;;;;;;11.46;59.52;98428.17;78299;1298;3026295;-59
2024/04/03 05:35:09;;;;;;;0.60;0.60;;;;;;;11.55;59.32;98442.86;79786;1295;3013438;-63
2024/04/03 05:37:36;;;;;;;1.90;0.80;;;;;;;11.65;58.93;98439.97;79959;1292;3013832;-60
2024/04/03 05:40:05;;;;;;;2.60;0.70;;;;;;;11.62;58.61;98437.59;78490;1293;3028748;-60
2024/04/03 05:42:32;;;;;;;3.60;0.70;;;;;;;11.54;58.21;98443.64;79778;1292;3013495;-61
2024/04/03 05:44:58;;;;;;;2.40;1.00;;;;;;;11.57;58.70;98446.92;79750;1292;3011796;-59
2024/04/03 05:47:26;;;;;;;3.40;1.30;;;;;;;11.53;58.54;98448.06;78665;1295;3052617;-62
2024/04/03 05:49:56;;;;;;;3.30;1.20;;;;;;;11.53;58.61;98439.17;79683;1295;3013124;-61
2024/04/03 05:52:25;;;;;;;6.50;0.90;;;;;;;11.46;58.65;98450.27;79232;1297;3011640;-61
2024/04/03 05:54:52;;;;;;;3.10;0.90;;;;;;;11.39;58.50;98453.43;79671;1295;3013052;-62
2024/04/03 05:57:18;;;;;;;1.60;1.00;;;;;;;11.45;58.61;98459.09;79741;1292;3011736;-63
2024/04/03 05:59:46;;;;;;;3.80;1.20;;;;;;;11.50;58.30;98459.23;78740;1290;3026064;-64
2024/04/03 06:02:13;;;;;;;4.70;1.40;;;;;;;11.47;58.62;98469.84;80336;1292;3020820;-65
2024/04/03 06:04:40;;;;;;;3.20;1.30;;;;;;;11.62;58.52;98469.48;79819;1292;3013445;-61
2024/04/03 06:07:08;;;;;;;5.40;1.60;;;;;;;11.57;58.59;98481.11;78788;1293;3025775;-60
2024/04/03 06:09:34;;;;;;;2.60;1.20;;;;;;;11.49;58.37;98486.55;79855;1295;3013430;-62
2024/04/03 06:12:01;;;;;;;7.80;1.60;;;;;;;11.60;58.39;98480.33;79556;1295;3011646;-61
2024/04/03 06:14:29;;;;;;;2.80;1.70;;;;;;;11.60;58.40;98477.56;78384;1295;3028745;-60
2024/04/03 06:16:56;;;;;;;2.70;0.80;;;;;;;11.71;58.20;98481.44;80618;1291;3012864;-63
2024/04/03 06:19:23;;;;;;;3.10;1.10;;;;;;;11.62;58.21;98480.57;80174;1292;3011878;-62
2024/04/03 06:21:50;;;;;;;6.60;1.10;;;;;;;11.55;58.40;98484.41;78440;1295;3025865;-62
2024/04/03 06:24:17;;;;;;;1.10;0.70;;;;;;;11.70;57.99;98472.34;79606;1295;3020903;-62
2024/04/03 06:26:43;;;;;;;3.30;0.70;;;;;;;11.73;57.97;98482.48;79637;1292;3011716;-61
2024/04/03 06:29:11;;;;;;;4.10;1.10;;;;;;;11.69;57.93;98480.15;78624;1292;3028015;-63
2024/04/03 06:31:38;;;;;;;2.10;1.10;;;;;;;11.75;57.86;98475.98;79645;1293;3013582;-61
2024/04/03 06:34:05;;;;;;;2.40;1.00;;;;;;;11.82;57.56;98484.91;79715;1293;3011920;-69
2024/04/03 06:36:33;;;;;;;2.80;1.10;;;;;;;11.79;57.75;98482.84;78513;1292;3029104;-63
2024/04/03 06:38:59;;;;;;;3.80;1.20;;;;;;;11.87;57.51;98483.79;79927;1292;3018977;-59
2024/04/03 06:41:26;;;;;;;3.70;1.10;;;;;;;11.89;56.89;98480.98;79913;1291;3013065;-61
2024/04/03 06:43:54;;;;;;;2.70;1.00;;;;;;;11.87;56.72;98486.05;78781;1292;3026159;-64
2024/04/03 06:46:21;;;;;;;9.10;1.30;;;;;;;11.80;56.84;98489.95;80311;1292;3012725;-61
2024/04/03 06:48:47;;;;;;;5.10;1.10;;;;;;;11.89;56.70;98485.59;79927;1294;3013429;-63
2024/04/03 06:51:15;;;;;;;7.20;1.20;;;;;;;11.97;56.48;98494.04;79220;1294;3026332;-61
2024/04/03 06:53:42;;;;;;;6.50;1.70;;;;;;;11.91;56.17;98508.55;80095;1295;3013548;-60
2024/04/03 06:56:09;;;;;;;4.00;1.40;;;;;;;11.99;56.11;98502.81;80015;1293;3011926;-61
2024/04/03 06:58:39;;;;;;;5.40;1.70;;;;;;;12.07;55.80;98504.49;78458;1292;3056631;-62
2024/04/03 07:01:06;;;;;;;5.30;1.50;;;;;;;12.13;55.62;98511.38;79984;1292;3013334;-60
2024/04/03 07:03:33;;;;;;;4.20;1.40;;;;;;;12.26;55.43;98494.64;80119;1291;3011509;-62
2024/04/03 07:06:01;;;;;;;2.70;1.40;;;;;;;12.24;55.45;98500.50;78839;1292;3052672;-62
2024/04/03 07:08:27;;;;;;;2.50;1.20;;;;;;;12.36;55.18;98498.61;79907;1295;3013725;-60
2024/04/03 07:10:54;;;;;;;8.30;1.40;;;;;;;12.37;54.97;98484.25;79927;1295;3011901;-60
2024/04/03 07:13:22;;;;;;;2.50;0.90;;;;;;;12.49;54.61;98490.11;78619;1295;3026177;-61
2024/04/03 07:15:49;;;;;;;4.50;1.20;;;;;;;12.64;54.46;98494.99;79838;1292;3013445;-59
2024/04/03 07:18:16;;;;;;;4.70;1.10;;;;;;;12.70;54.06;98507.17;79739;1293;3011675;-59
2024/04/03 07:20:55;;;;;;;2.20;0.80;;;;;;;12.64;53.94;98510.16;79144;1294;3025066;-60
2024/04/03 07:23:25;;;;;;;4.20;1.10;;;;;;;12.48;54.59;98516.23;78600;1292;3054176;-60
2024/04/03 07:25:53;;;;;;;4.00;1.00;;;;;;;12.71;54.37;98525.16;79606;1295;3011882;-60
2024/04/03 07:28:21;;;;;;;4.90;0.80;;;;;;;12.89;53.79;98528.42;78582;1292;3025924;-62
2024/04/03 07:30:48;;;;;;;2.00;0.90;;;;;;;12.92;53.98;98543.25;79756;1295;3018410;-62
2024/04/03 07:33:15;;;;;;;2.90;0.70;;;;;;;12.98;53.59;98561.40;79666;1291;3011485;-60
2024/04/03 07:35:43;;;;;;;4.40;0.70;;;;;;;13.02;53.29;98550.29;78378;1292;3028548;-60
2024/04/03 07:38:09;;;;;;;5.80;0.70;;;;;;;13.03;53.13;98564.13;79674;1295;3013650;-61
2024/04/03 07:40:36;;;;;;;3.50;0.70;;;;;;;13.14;52.60;98564.41;79700;1298;3012191;-62
2024/04/03 07:43:04;;;;;;;5.80;1.00;;;;;;;13.18;52.57;98552.65;78421;1295;3028692;-63
2024/04/03 07:45:31;;;;;;;3.20;0.80;;;;;;;13.12;52.76;98547.39;79959;1291;3013253;-65
2024/04/03 07:47:59;;;;;;;7.10;1.10;;;;;;;13.12;52.88;98552.30;79620;1295;3011892;-63
2024/04/03 07:50:27;;;;;;;1.30;0.80;;;;;;;13.23;52.72;98538.52;78559;1295;3050042;-64
2024/04/03 07:52:54;;;;;;;3.80;0.90;;;;;;;13.26;52.26;98552.70;79953;1292;3013652;-64
2024/04/03 07:55:21;;;;;;;3.60;1.30;;;;;;;13.24;52.26;98554.39;79824;1292;3011887;-65
2024/04/03 07:57:49;;;;;;;2.60;1.00;;;;;;;13.36;52.20;98553.93;79120;1291;3052162;-64
2024/04/03 08:00:15;;;;;;;2.40;1.00;;;;;;;13.58;52.06;98542.93;80201;1292;3013697;-65
2024/04/03 08:02:42;;;;;;;4.40;1.30;;;;;;;13.75;51.27;98533.14;79842;1291;3011619;-61
2024/04/03 08:05:13;;;;;;;8.10;1.10;;;;;;;13.85;51.04;98519.59;78350;1295;3027096;-63
2024/04/03 08:07:43;;;;;;;1.50;0.90;;;;;;;13.94;51.12;98508.40;79705;1295;3012768;-61
2024/04/03 08:10:11;;;;;;;3.10;1.20;;;;;;;14.01;50.32;98507.93;78484;1296;3052391;-63
2024/04/03 08:12:39;;;;;;;5.00;1.50;;;;;;;13.99;49.77;98510.77;79698;1291;3013955;-64
2024/04/03 08:15:10;;;;;;;3.80;1.50;;;;;;;14.05;49.54;98512.55;79630;1295;3011467;-62
2024/04/03 08:17:38;;;;;;;2.60;1.10;;;;;;;14.16;48.92;98529.70;78319;1292;3048806;-62
2024/04/03 08:20:06;;;;;;;4.40;1.20;;;;;;;14.13;48.69;98517.74;79749;1295;3018886;-65
2024/04/03 08:22:33;;;;;;;2.90;0.80;;;;;;;14.29;48.35;98522.84;80052;1293;3011717;-62
2024/04/03 08:25:02;;;;;;;2.20;0.90;;;;;;;14.39;47.43;98532.67;78864;1295;3053508;-62
2024/04/03 08:27:33;;;;;;;7.30;1.00;;;;;;;14.38;47.38;98528.20;79737;1295;3013339;-62
2024/04/03 08:30:01;;;;;;;3.30;1.00;;;;;;;14.36;47.68;98520.81;78552;1292;3052196;-63
2024/04/03 08:32:28;;;;;;;5.00;0.80;;;;;;;14.45;47.77;98501.14;80156;1293;3012863;-61
2024/04/03 08:34:55;;;;;;;3.80;1.90;;;;;;;14.42;47.67;98501.94;80239;1292;3011833;-62
2024/04/03 08:37:22;;;;;;;8.10;1.20;;;;;;;14.57;46.93;98504.70;78627;1295;3028970;-62
2024/04/03 08:39:52;;;;;;;1.20;0.90;;;;;;;14.77;46.41;98499.27;80032;1295;3013124;-62
2024/04/03 08:42:21;;;;;;;0.90;0.80;;;;;;;14.90;45.60;98509.38;79302;1291;3013332;-72
2024/04/03 08:44:48;;;;;;;5.80;1.20;;;;;;;14.84;45.27;98507.66;79650;1295;3018874;-70
2024/04/03 08:47:14;;;;;;;3.30;0.80;;;;;;;14.81;45.23;98504.25;80687;1297;3011750;-67
2024/04/03 08:49:42;;;;;;;5.60;1.30;;;;;;;15.01;44.76;98509.77;79457;1295;3025838;-66
2024/04/03 08:52:13;;;;;;;5.10;0.80;;;;;;;15.18;44.67;98511.45;79676;1293;3013792;-68
2024/04/03 08:54:42;;;;;;;3.30;0.70;;;;;;;15.22;44.87;98521.49;78451;1294;3052671;-70
2024/04/03 08:57:09;;;;;;;3.10;1.00;;;;;;;15.22;44.67;98520.50;79793;1295;3013681;-68
2024/04/03 08:59:38;;;;;;;3.50;0.70;;;;;;;15.26;44.42;98514.30;79654;1292;3011646;-69
2024/04/03 09:02:06;;;;;;;5.20;0.80;;;;;;;15.28;44.21;98520.47;78448;1292;3056882;-70
2024/04/03 09:04:33;;;;;;;4.50;1.40;;;;;;;15.30;43.67;98524.70;79391;1292;3393689;-65
2024/04/03 09:07:01;;;;;;;5.10;1.50;;;;;;;15.39;43.04;98516.77;79764;1291;3014060;-69
2024/04/03 09:09:30;;;;;;;3.90;1.10;;;;;;;15.37;43.54;98517.50;78452;1293;3052630;-70
2024/04/03 09:12:05;;;;;;;7.40;1.70;;;;;;;15.42;44.05;98510.99;79677;1293;3012765;-67
2024/04/03 09:14:36;;;;;;;1.70;1.10;;;;;;;15.62;43.74;98508.50;78550;1294;3068902;-70
2024/04/03 09:17:05;;;;;;;2.50;1.10;;;;;;;15.76;43.21;98527.17;79623;1292;3011917;-64
2024/04/03 09:19:35;;;;;;;10.60;1.10;;;;;;;15.76;42.71;98512.48;78605;1295;3056424;-71
2024/04/03 09:22:02;;;;;;;3.80;1.50;;;;;;;15.74;42.97;98526.87;79704;1293;3013864;-67
2024/04/03 09:24:33;;;;;;;10.10;1.30;;;;;;;15.75;43.01;98505.36;79531;1293;3011859;-66
2024/04/03 09:27:04;;;;;;;5.10;1.20;;;;;;;15.75;43.03;98510.84;78651;1292;3052108;-67
2024/04/03 09:29:31;;;;;;;2.30;1.20;;;;;;;15.90;42.72;98502.55;79608;1298;3013271;-69
2024/04/03 09:32:03;;;;;;;2.00;0.90;;;;;;;15.88;43.24;98517.58;79170;1291;3011651;-66
2024/04/03 09:34:33;;;;;;;6.00;0.90;;;;;;;16.00;43.20;98507.15;79718;1292;3011810;-67
2024/04/03 09:37:01;;;;;;;4.30;1.00;;;;;;;16.07;42.42;98518.34;78344;1295;3056703;-68
2024/04/03 09:39:28;;;;;;;4.20;1.20;;;;;;;16.12;41.46;98508.32;79653;1291;3021212;-67
2024/04/03 09:42:02;;;;;;;2.10;1.00;;;;;;;16.05;41.86;98518.01;80060;1293;3013264;-62
2024/04/03 09:44:31;;;;;;;7.20;1.30;;;;;;;16.13;41.64;98518.10;78698;1295;3052277;-60
2024/04/03 09:46:59;;;;;;;3.40;1.00;;;;;;;16.17;41.15;98538.43;80302;1296;3013557;-61
2024/04/03 09:49:28;;;;;;;1.40;0.90;;;;;;;16.20;40.68;98528.58;79113;1292;3012228;-62
2024/04/03 09:51:55;;;;;;;4.90;0.80;;;;;;;16.34;40.28;98523.31;79422;1298;3013359;-62
2024/04/03 09:54:22;;;;;;;6.30;1.00;;;;;;;16.31;39.99;98529.95;79560;1292;3013125;-61
2024/04/03 09:56:53;;;;;;;1.10;0.80;;;;;;;16.06;40.66;98529.70;78476;1292;3053155;-62
2024/04/03 09:59:20;;;;;;;3.90;1.00;;;;;;;16.23;40.33;98511.06;79923;1296;3015158;-63
2024/04/03 10:01:47;;;;;;;5.20;1.10;;;;;;;16.47;40.20;98501.32;80066;1292;3011504;-63
2024/04/03 10:04:15;;;;;;;5.60;1.00;;;;;;;16.63;39.82;98508.95;78406;1295;3067790;-61
2024/04/03 10:06:42;;;;;;;3.50;1.20;;;;;;;16.68;39.32;98507.19;79631;1295;3018568;-61
2024/04/03 10:09:15;;;;;;;2.70;1.10;;;;;;;16.66;39.15;98506.48;79607;1293;3011897;-61
2024/04/03 10:12:04;;;;;;;2.80;1.20;;;;;;;16.51;38.77;98512.19;78316;1295;3053896;-61
2024/04/03 10:14:35;;;;;;;1.70;0.90;;;;;;;16.67;38.30;98512.73;78448;1295;3049415;-61
2024/04/03 10:17:11;;;;;;;2.80;1.00;;;;;;;17.05;37.89;98507.04;79953;1295;3012490;-63
2024/04/03 10:19:41;;;;;;;4.10;1.10;;;;;;;16.96;37.85;98517.25;78303;1297;3054239;-61
2024/04/03 10:22:14;;;;;;;4.80;1.20;;;;;;;16.81;38.30;98525.52;79575;1293;3013670;-62
2024/04/03 10:24:43;;;;;;;5.70;1.20;;;;;;;16.75;38.46;98517.72;78286;1297;3052447;-61
2024/04/03 10:27:10;;;;;;;6.30;1.50;;;;;;;16.90;38.17;98521.22;79484;1292;3013127;-62
2024/04/03 10:29:37;;;;;;;7.30;1.30;;;;;;;16.80;38.15;98535.86;79663;1293;3012900;-60
2024/04/03 10:32:06;;;;;;;1.50;1.00;;;;;;;16.75;37.88;98520.94;78508;1295;3051308;-62
2024/04/03 10:34:33;;;;;;;2.40;0.90;;;;;;;16.63;38.04;98532.21;79855;1292;3013101;-61
2024/04/03 10:37:00;;;;;;;5.80;0.80;;;;;;;16.44;38.73;98541.42;79831;1292;3013423;-59
2024/04/03 10:39:28;;;;;;;3.90;0.90;;;;;;;16.57;38.16;98532.98;78347;1292;3051419;-61
2024/04/03 10:41:58;;;;;;;2.50;0.90;;;;;;;16.86;37.45;98529.27;79506;1292;3014793;-64
2024/04/03 10:44:28;;;;;;;4.30;1.10;;;;;;;17.10;37.13;98524.69;78228;1295;3053734;-60
2024/04/03 10:47:04;;;;;;;6.20;1.00;;;;;;;17.52;36.45;98527.09;79852;1293;3014946;-61
2024/04/03 10:49:32;;;;;;;6.40;0.80;;;;;;;17.70;35.52;98530.88;78503;1295;3053049;-63
2024/04/03 10:51:59;;;;;;;4.50;0.90;;;;;;;17.65;35.26;98542.36;79828;1295;3013674;-64
2024/04/03 10:54:26;;;;;;;1.90;0.80;;;;;;;17.55;35.30;98560.80;79677;1292;3011683;-60
2024/04/03 10:56:59;;;;;;;2.70;0.70;;;;;;;17.59;35.06;98546.41;78578;1298;3055498;-63
2024/04/03 10:59:27;;;;;;;3.70;0.70;;;;;;;17.65;34.77;98540.58;79728;1292;3012152;-62
2024/04/03 11:01:55;;;;;;;5.20;0.90;;;;;;;17.71;34.76;98543.72;78658;1293;3053416;-63
2024/04/03 11:04:26;;;;;;;6.00;0.90;;;;;;;17.76;34.91;98554.13;79603;1292;3012966;-63
2024/04/03 11:06:57;;;;;;;7.20;1.20;;;;;;;17.75;34.79;98557.31;78482;1295;3054534;-63
2024/04/03 11:09:26;;;;;;;1.70;0.80;;;;;;;17.79;34.75;98537.23;79604;1297;3011829;-62
2024/04/03 11:12:00;;;;;;;4.50;1.10;;;;;;;17.99;34.01;98558.29;78520;1294;3052658;-63
2024/04/03 11:14:30;;;;;;;4.70;1.00;;;;;;;17.85;33.88;98556.27;79292;1292;3012933;-65
2024/04/03 11:16:58;;;;;;;3.00;1.20;;;;;;;17.88;33.55;98553.63;79685;1291;3012779;-60
2024/04/03 11:19:25;;;;;;;2.80;0.70;;;;;;;17.93;33.17;98561.76;79906;1293;3011371;-60
2024/04/03 11:21:54;;;;;;;1.60;0.80;;;;;;;17.97;32.95;98543.32;78945;1292;3050388;-61
2024/04/03 11:24:20;;;;;;;8.00;1.30;;;;;;;17.94;32.85;98551.02;79954;1295;3013291;-62